createdAt,value
2018-07-14T00:02:01.744Z,191.80
2018-07-14T00:04:33.164Z,192.92
2018-07-14T00:07:09.331Z,196.22
2018-07-14T00:09:40.620Z,198.70
2018-07-14T00:12:12.286Z,196.50
2018-07-14T00:14:43.538Z,191.05
2018-07-14T00:17:14.865Z,187.77
2018-07-14T00:19:46.179Z,188.70
2018-07-14T00:22:17.546Z,186.47
2018-07-14T00:24:48.687Z,189.55
2018-07-14T00:27:20.004Z,194.67
2018-07-14T00:29:51.301Z,190.85
2018-07-14T00:32:22.634Z,192.98
2018-07-14T00:34:54.284Z,192.60
2018-07-14T00:37:25.516Z,189.85
2018-07-14T00:39:57.054Z,190.22
2018-07-14T00:42:28.287Z,191.45
2018-07-14T00:44:59.475Z,188.90
2018-07-14T00:47:30.730Z,188.05
2018-07-14T00:50:01.973Z,193.80
2018-07-14T00:52:33.114Z,190.77
2018-07-14T00:55:04.446Z,189.15
2018-07-14T00:57:35.737Z,190.70
2018-07-14T01:00:06.895Z,191.62
2018-07-14T01:02:38.119Z,190.35
2018-07-14T01:05:10.561Z,192.13
2018-07-14T01:07:42.579Z,189.85
2018-07-14T01:10:13.828Z,189.07
2018-07-14T01:12:46.032Z,191.32
2018-07-14T01:15:20.393Z,187.00
2018-07-14T01:17:51.860Z,185.80
2018-07-14T01:20:23.031Z,187.22
2018-07-14T01:22:54.303Z,192.22
2018-07-14T01:25:25.458Z,195.35
2018-07-14T01:27:56.663Z,193.15
2018-07-14T01:30:27.779Z,198.78
2018-07-14T01:32:58.959Z,190.55
2018-07-14T01:35:31.611Z,191.25
2018-07-14T01:38:04.598Z,189.67
2018-07-14T01:40:36.179Z,187.30
2018-07-14T01:43:08.400Z,188.87
2018-07-14T01:45:39.754Z,191.80
2018-07-14T01:48:13.098Z,189.00
2018-07-14T01:50:46.524Z,190.25
2018-07-14T01:53:17.959Z,191.82
2018-07-14T01:55:49.167Z,192.55
2018-07-14T01:58:20.278Z,191.68
2018-07-14T02:00:51.471Z,196.02
2018-07-14T02:03:22.605Z,190.15
2018-07-14T02:05:53.843Z,187.07
2018-07-14T02:08:25.290Z,188.10
2018-07-14T02:10:56.470Z,192.57
2018-07-14T02:13:27.679Z,188.50
2018-07-14T02:15:58.801Z,194.28
2018-07-14T02:18:29.962Z,192.05
2018-07-14T02:21:01.366Z,194.35
2018-07-14T02:23:32.507Z,198.23
2018-07-14T02:26:03.766Z,194.62
2018-07-14T02:28:35.046Z,196.20
2018-07-14T02:31:06.227Z,191.98
2018-07-14T02:33:37.459Z,192.72
2018-07-14T02:36:08.708Z,191.98
2018-07-14T02:38:40.353Z,192.28
2018-07-14T02:41:11.595Z,196.95
2018-07-14T02:43:43.036Z,190.00
2018-07-14T02:46:14.697Z,192.40
2018-07-14T02:48:46.011Z,193.95
2018-07-14T02:51:17.014Z,190.57
2018-07-14T02:53:48.127Z,189.35
2018-07-14T02:56:19.256Z,191.70
2018-07-14T02:58:50.920Z,188.20
2018-07-14T03:01:23.019Z,194.80
2018-07-14T03:03:54.331Z,200.10
2018-07-14T03:06:25.423Z,194.50
2018-07-14T03:08:56.705Z,191.35
2018-07-14T03:11:27.860Z,193.57
2018-07-14T03:13:59.103Z,192.28
2018-07-14T03:16:30.331Z,199.30
2018-07-14T03:19:01.584Z,196.85
2018-07-14T03:21:32.761Z,196.90
2018-07-14T03:24:04.004Z,192.07
2018-07-14T03:26:35.041Z,190.20
2018-07-14T03:29:06.229Z,195.05
2018-07-14T03:31:37.348Z,192.95
2018-07-14T03:34:08.533Z,189.85
2018-07-14T03:36:39.858Z,191.92
2018-07-14T03:39:11.384Z,192.40
2018-07-14T03:41:42.607Z,227.43
2018-07-14T03:44:13.607Z,207.45
2018-07-14T03:46:45.061Z,196.82
2018-07-14T03:49:16.126Z,194.57
2018-07-14T03:51:47.235Z,192.55
2018-07-14T03:54:18.355Z,194.75
2018-07-14T03:56:51.086Z,193.05
2018-07-14T03:59:23.322Z,192.35
2018-07-14T04:01:54.585Z,192.68
2018-07-14T04:04:25.698Z,193.52
2018-07-14T04:06:57.132Z,194.82
2018-07-14T04:09:28.246Z,191.35
2018-07-14T04:11:59.487Z,193.57
2018-07-14T04:14:31.702Z,192.28
2018-07-14T04:17:02.926Z,195.65
2018-07-14T04:19:34.190Z,195.40
2018-07-14T04:22:06.936Z,196.18
2018-07-14T04:24:38.032Z,194.43
2018-07-14T04:27:09.228Z,196.18
2018-07-14T04:29:40.431Z,196.12
2018-07-14T04:32:12.361Z,192.75
2018-07-14T04:34:43.525Z,190.97
2018-07-14T04:37:14.761Z,195.92
2018-07-14T04:39:45.974Z,194.35
2018-07-14T04:42:17.364Z,189.57
2018-07-14T04:44:48.513Z,188.95
2018-07-14T04:47:20.028Z,189.87
2018-07-14T04:49:51.674Z,195.55
2018-07-14T04:52:22.855Z,202.70
2018-07-14T04:54:55.481Z,190.18
2018-07-14T04:57:26.982Z,192.62
2018-07-14T04:59:58.380Z,191.70
2018-07-14T05:02:29.669Z,191.82
2018-07-14T05:05:00.876Z,193.20
2018-07-14T05:07:32.072Z,194.07
2018-07-14T05:10:03.321Z,191.12
2018-07-14T05:12:35.124Z,196.40
2018-07-14T05:15:06.628Z,193.47
2018-07-14T05:17:37.802Z,192.35
2018-07-14T05:20:09.668Z,192.43
2018-07-14T05:22:40.876Z,196.50
2018-07-14T05:25:13.576Z,199.82
2018-07-14T05:27:46.295Z,192.03
2018-07-14T05:30:17.904Z,197.82
2018-07-14T05:32:49.123Z,199.25
2018-07-14T05:35:21.564Z,194.85
2018-07-14T05:37:53.060Z,197.25
2018-07-14T05:40:24.460Z,204.32
2018-07-14T05:42:55.868Z,199.82
2018-07-14T05:45:28.217Z,197.10
2018-07-14T05:48:01.719Z,198.05
2018-07-14T05:50:33.659Z,198.20
2018-07-14T05:53:06.493Z,198.95
2018-07-14T05:55:38.053Z,196.12
2018-07-14T05:58:10.735Z,200.78
2018-07-14T06:00:42.008Z,199.55
2018-07-14T06:03:13.178Z,202.13
2018-07-14T06:05:44.303Z,201.30
2018-07-14T06:08:15.469Z,198.75
2018-07-14T06:10:46.583Z,202.28
2018-07-14T06:13:18.347Z,202.25
2018-07-14T06:15:49.848Z,198.78
2018-07-14T06:18:21.346Z,210.28
2018-07-14T06:20:52.415Z,204.47
2018-07-14T06:23:24.181Z,205.47
2018-07-14T06:25:55.559Z,205.70
2018-07-14T06:28:26.836Z,206.02
2018-07-14T06:30:57.977Z,205.60
2018-07-14T06:33:29.302Z,205.98
2018-07-14T06:36:00.614Z,200.78
2018-07-14T06:38:32.545Z,204.00
2018-07-14T06:41:04.006Z,206.10
2018-07-14T06:43:35.472Z,204.35
2018-07-14T06:46:07.247Z,204.20
2018-07-14T06:48:38.907Z,202.18
2018-07-14T06:51:10.053Z,224.07
2018-07-14T06:53:41.467Z,215.25
2018-07-14T06:56:12.606Z,209.20
2018-07-14T06:58:43.875Z,208.95
2018-07-14T07:01:15.008Z,204.82
2018-07-14T07:03:46.494Z,206.72
2018-07-14T07:06:17.861Z,209.27
2018-07-14T07:08:49.006Z,211.60
2018-07-14T07:11:20.127Z,214.60
2018-07-14T07:13:51.991Z,210.80
2018-07-14T07:16:23.201Z,209.07
2018-07-14T07:18:54.671Z,210.72
2018-07-14T07:21:25.805Z,207.57
2018-07-14T07:23:57.064Z,203.42
2018-07-14T07:26:28.172Z,207.18
2018-07-14T07:28:59.504Z,210.45
2018-07-14T07:31:30.961Z,208.85
2018-07-14T07:34:02.663Z,205.40
2018-07-14T07:36:34.019Z,211.92
2018-07-14T07:39:14.640Z,209.20
2018-07-14T07:41:53.626Z,207.32
2018-07-14T07:44:25.117Z,205.52
2018-07-14T07:46:56.574Z,214.12
2018-07-14T07:49:28.434Z,211.18
2018-07-14T07:51:59.776Z,210.85
2018-07-14T07:54:32.030Z,206.85
2018-07-14T07:57:04.518Z,206.82
2018-07-14T07:59:36.239Z,215.28
2018-07-14T08:02:07.401Z,210.23
2018-07-14T08:04:38.681Z,203.15
2018-07-14T08:07:10.094Z,208.38
2018-07-14T08:09:43.310Z,210.90
2018-07-14T08:12:15.934Z,222.07
2018-07-14T08:14:47.380Z,209.90
2018-07-14T08:17:18.704Z,207.52
2018-07-14T08:19:49.982Z,205.12
2018-07-14T08:22:21.138Z,209.55
2018-07-14T08:24:52.498Z,208.85
2018-07-14T08:27:23.790Z,214.23
2018-07-14T08:29:55.202Z,209.57
2018-07-14T08:32:26.585Z,209.37
2018-07-14T08:34:57.911Z,204.35
2018-07-14T08:37:30.851Z,212.50
2018-07-14T08:40:02.435Z,206.63
2018-07-14T08:42:33.926Z,207.55
2018-07-14T08:45:05.181Z,204.20
2018-07-14T08:47:37.367Z,209.18
2018-07-14T08:50:10.507Z,211.57
2018-07-14T08:52:42.962Z,208.63
2018-07-14T08:55:16.944Z,210.05
2018-07-14T08:57:49.210Z,213.68
2018-07-14T09:00:21.070Z,224.95
2018-07-14T09:02:52.826Z,218.80
2018-07-14T09:05:24.874Z,226.15
2018-07-14T09:07:56.261Z,214.02
2018-07-14T09:10:27.436Z,218.70
2018-07-14T09:12:58.768Z,217.62
2018-07-14T09:15:33.415Z,219.97
2018-07-14T09:18:05.946Z,225.05
2018-07-14T09:20:37.612Z,219.05
2018-07-14T09:23:10.359Z,215.40
2018-07-14T09:25:41.716Z,210.45
2018-07-14T09:28:14.186Z,216.95
2018-07-14T09:30:45.599Z,220.30
2018-07-14T09:33:16.915Z,223.53
2018-07-14T09:35:48.132Z,218.02
2018-07-14T09:38:19.271Z,238.90
2018-07-14T09:40:50.527Z,215.85
2018-07-14T09:43:21.725Z,219.43
2018-07-14T09:45:53.027Z,216.50
2018-07-14T09:48:24.339Z,214.78
2018-07-14T09:50:55.775Z,210.93
2018-07-14T09:53:26.909Z,213.07
2018-07-14T09:55:58.676Z,213.22
2018-07-14T09:58:29.965Z,223.35
2018-07-14T10:01:06.149Z,253.45
2018-07-14T10:03:38.122Z,222.88
2018-07-14T10:06:09.408Z,210.93
2018-07-14T10:08:40.715Z,223.85
2018-07-14T10:11:12.109Z,227.55
2018-07-14T10:13:43.880Z,219.50
2018-07-14T10:16:22.400Z,219.40
2018-07-14T10:21:57.690Z,226.10
2018-07-14T10:24:28.859Z,214.10
2018-07-14T10:27:02.796Z,217.43
2018-07-14T10:29:34.400Z,216.73
2018-07-14T10:32:06.920Z,211.15
2018-07-14T10:34:38.647Z,205.25
2018-07-14T10:37:10.078Z,224.18
2018-07-14T10:39:41.530Z,200.70
2018-07-14T10:42:12.961Z,212.45
2018-07-14T10:44:44.478Z,221.57
2018-07-14T10:47:15.656Z,216.70
2018-07-14T10:49:46.980Z,210.75
2018-07-14T10:52:20.217Z,215.15
2018-07-14T10:54:51.363Z,205.52
2018-07-14T10:57:22.680Z,208.53
2018-07-14T10:59:54.076Z,210.10
2018-07-14T11:02:26.439Z,216.30
2018-07-14T11:04:57.759Z,217.30
2018-07-14T11:07:29.511Z,223.68
2018-07-14T11:10:00.966Z,221.72
2018-07-14T11:12:32.371Z,226.07
2018-07-14T11:15:03.876Z,212.45
2018-07-14T11:17:35.505Z,224.15
2018-07-14T11:20:07.123Z,218.40
2018-07-14T11:22:38.311Z,221.80
2018-07-14T11:25:09.741Z,214.55
2018-07-14T11:27:40.939Z,223.82
2018-07-14T11:30:14.572Z,222.73
2018-07-14T11:32:46.137Z,222.17
2018-07-14T11:35:17.798Z,211.25
2018-07-14T11:37:49.251Z,229.00
2018-07-14T11:40:20.866Z,220.30
2018-07-14T11:42:52.628Z,218.50
2018-07-14T11:45:24.635Z,226.25
2018-07-14T11:47:56.108Z,222.52
2018-07-14T11:50:30.882Z,227.22
2018-07-14T11:53:03.572Z,232.65
2018-07-14T11:55:35.573Z,234.03
2018-07-14T11:58:07.374Z,224.35
2018-07-14T12:00:39.760Z,219.65
2018-07-14T12:03:11.677Z,221.75
2018-07-14T12:05:42.759Z,235.85
2018-07-14T12:08:14.159Z,208.70
2018-07-14T12:10:45.597Z,219.65
2018-07-14T12:13:16.928Z,225.82
2018-07-14T12:15:48.296Z,229.00
2018-07-14T12:18:19.562Z,232.60
2018-07-14T12:20:50.732Z,210.55
2018-07-14T12:23:21.936Z,230.20
2018-07-14T12:25:53.303Z,229.05
2018-07-14T12:28:27.600Z,224.90
2018-07-14T12:30:59.690Z,219.40
2018-07-14T12:33:31.061Z,215.15
2018-07-14T12:36:02.904Z,216.35
2018-07-14T12:38:34.307Z,224.58
2018-07-14T12:41:05.520Z,236.03
2018-07-14T12:43:37.008Z,228.75
2018-07-14T12:46:09.117Z,227.78
2018-07-14T12:48:40.633Z,224.20
2018-07-14T12:51:11.895Z,217.75
2018-07-14T12:53:43.154Z,214.05
2018-07-14T12:56:15.170Z,223.68
2018-07-14T12:58:46.513Z,221.50
2018-07-14T13:01:18.290Z,218.78
2018-07-14T13:03:49.595Z,215.70
2018-07-14T13:06:21.082Z,220.25
2018-07-14T13:08:52.380Z,218.22
2018-07-14T13:11:24.120Z,228.00
2018-07-14T13:13:55.384Z,219.43
2018-07-14T13:16:26.785Z,231.72
2018-07-14T13:18:58.291Z,226.05
2018-07-14T13:21:29.558Z,233.97
2018-07-14T13:24:01.856Z,242.60
2018-07-14T13:26:33.450Z,255.67
2018-07-14T13:29:04.675Z,246.05
2018-07-14T13:31:35.959Z,230.10
2018-07-14T13:34:07.249Z,228.15
2018-07-14T13:36:38.468Z,229.80
2018-07-14T13:39:09.709Z,228.35
2018-07-14T13:41:40.876Z,238.62
2018-07-14T13:44:12.272Z,225.97
2018-07-14T13:46:43.691Z,236.05
2018-07-14T13:49:14.847Z,245.70
2018-07-14T13:51:46.187Z,238.97
2018-07-14T13:54:17.468Z,242.45
2018-07-14T13:56:49.019Z,255.22
2018-07-14T13:59:20.257Z,246.95
2018-07-14T14:01:51.484Z,241.20
2018-07-14T14:04:22.723Z,248.50
2018-07-14T14:06:54.157Z,235.80
2018-07-14T14:09:25.940Z,241.80
2018-07-14T14:11:57.444Z,227.68
2018-07-14T14:14:29.339Z,232.30
2018-07-14T14:17:00.943Z,222.80
2018-07-14T14:19:32.336Z,236.25
2018-07-14T14:22:04.256Z,220.88
2018-07-14T14:24:35.275Z,232.10
2018-07-14T14:27:06.982Z,236.80
2018-07-14T14:29:38.187Z,229.47
2018-07-14T14:32:09.607Z,257.73
2018-07-14T14:34:40.816Z,253.60
2018-07-14T14:37:12.031Z,231.20
2018-07-14T14:39:43.279Z,231.20
2018-07-14T14:42:14.610Z,241.60
2018-07-14T14:44:46.535Z,219.40
2018-07-14T14:47:18.194Z,229.35
2018-07-14T14:49:50.636Z,224.40
2018-07-14T14:52:21.970Z,228.77
2018-07-14T14:54:53.407Z,231.23
2018-07-14T14:57:24.437Z,224.45
2018-07-14T14:59:55.656Z,211.30
2018-07-14T15:02:27.215Z,221.95
2018-07-14T15:05:04.082Z,226.65
2018-07-14T15:07:36.181Z,234.90
2018-07-14T15:10:07.403Z,221.57
2018-07-14T15:12:39.524Z,221.68
2018-07-14T15:15:11.676Z,225.93
2018-07-14T15:17:43.178Z,223.22
2018-07-14T15:20:15.237Z,227.32
2018-07-14T15:22:47.280Z,222.35
2018-07-14T15:25:20.920Z,223.95
2018-07-14T15:27:52.243Z,235.93
2018-07-14T15:30:23.875Z,228.67
2018-07-14T15:32:55.136Z,219.15
2018-07-14T15:35:26.271Z,218.20
2018-07-14T15:37:58.611Z,213.68
2018-07-14T15:40:30.387Z,225.78
2018-07-14T15:43:02.735Z,226.25
2018-07-14T15:45:34.674Z,220.60
2018-07-14T15:48:07.114Z,222.42
2018-07-14T15:50:39.527Z,206.13
2018-07-14T15:53:11.892Z,222.05
2018-07-14T15:55:43.364Z,210.32
2018-07-14T15:58:14.540Z,214.50
2018-07-14T16:00:45.878Z,214.38
2018-07-14T16:03:17.731Z,214.65
2018-07-14T16:05:48.857Z,217.93
2018-07-14T16:08:20.123Z,217.00
2018-07-14T16:10:51.612Z,212.75
2018-07-14T16:13:22.723Z,220.95
2018-07-14T16:15:53.953Z,219.30
2018-07-14T16:18:25.199Z,211.92
2018-07-14T16:20:56.276Z,218.60
2018-07-14T16:23:27.574Z,221.62
2018-07-14T16:25:58.819Z,211.10
2018-07-14T16:28:30.469Z,210.45
2018-07-14T16:31:01.644Z,206.72
2018-07-14T16:33:32.931Z,204.63
2018-07-14T16:36:04.171Z,205.00
2018-07-14T16:38:35.376Z,207.00
2018-07-14T16:41:07.847Z,212.42
2018-07-14T16:43:40.166Z,207.98
2018-07-14T16:46:11.354Z,216.35
2018-07-14T16:48:42.530Z,213.95
2018-07-14T16:51:14.202Z,214.40
2018-07-14T16:53:45.522Z,215.15
2018-07-14T16:56:16.735Z,208.05
2018-07-14T16:58:47.987Z,207.12
2018-07-14T17:01:19.135Z,207.12
2018-07-14T17:03:50.403Z,214.23
2018-07-14T17:06:22.165Z,211.70
2018-07-14T17:08:53.610Z,210.70
2018-07-14T17:11:24.909Z,213.25
2018-07-14T17:13:56.080Z,206.78
2018-07-14T17:16:27.807Z,210.43
2018-07-14T17:18:58.939Z,204.47
2018-07-14T17:21:30.086Z,205.65
2018-07-14T17:24:01.664Z,208.87
2018-07-14T17:26:32.814Z,205.12
2018-07-14T17:29:04.171Z,207.55
2018-07-14T17:31:35.512Z,209.62
2018-07-14T17:34:06.852Z,205.05
2018-07-14T17:36:38.215Z,203.25
2018-07-14T17:39:09.981Z,206.30
2018-07-14T17:41:41.391Z,207.07
2018-07-14T17:44:14.604Z,203.40
2018-07-14T17:46:46.316Z,203.35
2018-07-14T17:49:17.713Z,200.22
2018-07-14T17:51:48.842Z,204.75
2018-07-14T17:54:20.109Z,204.23
2018-07-14T17:56:52.189Z,205.40
2018-07-14T17:59:23.639Z,206.90
2018-07-14T18:01:55.095Z,199.17
2018-07-14T18:04:26.295Z,205.98
2018-07-14T18:06:57.420Z,205.77
2018-07-14T18:09:28.864Z,213.12
2018-07-14T18:11:59.973Z,208.72
2018-07-14T18:14:31.919Z,212.23
2018-07-14T18:17:03.268Z,207.25
2018-07-14T18:19:34.508Z,213.05
2018-07-14T18:22:05.831Z,222.67
2018-07-14T18:24:37.019Z,217.28
2018-07-14T18:27:08.087Z,209.50
2018-07-14T18:29:39.515Z,214.63
2018-07-14T18:32:10.751Z,213.35
2018-07-14T18:34:43.798Z,213.05
2018-07-14T18:37:15.167Z,203.92
2018-07-14T18:39:46.865Z,206.53
2018-07-14T18:42:18.187Z,202.15
2018-07-14T18:44:49.588Z,194.20
2018-07-14T18:47:20.862Z,195.43
2018-07-14T18:49:52.080Z,201.75
2018-07-14T18:52:23.805Z,201.98
2018-07-14T18:54:56.105Z,198.68
2018-07-14T18:57:27.712Z,199.50
2018-07-14T19:00:00.576Z,199.35
2018-07-14T19:02:32.447Z,201.22
2018-07-14T19:05:06.284Z,206.28
2018-07-14T19:07:38.629Z,211.50
2018-07-14T19:10:10.772Z,226.62
2018-07-14T19:12:44.201Z,207.22
2018-07-14T19:15:19.284Z,201.62
2018-07-14T19:17:51.436Z,203.52
2018-07-14T19:20:25.262Z,207.70
2018-07-14T19:22:57.140Z,202.97
2018-07-14T19:25:30.084Z,200.93
2018-07-14T19:28:03.178Z,196.00
2018-07-14T19:30:35.895Z,204.23
2018-07-14T19:33:10.093Z,197.82
2018-07-14T19:35:42.088Z,208.40
2018-07-14T19:38:13.502Z,202.18
2018-07-14T19:40:45.100Z,209.20
2018-07-14T19:43:16.593Z,203.35
2018-07-14T19:45:48.428Z,203.85
2018-07-14T19:48:19.750Z,195.55
2018-07-14T19:50:51.367Z,194.40
2018-07-14T19:53:23.362Z,229.65
2018-07-14T19:55:56.196Z,201.52
2018-07-14T19:58:28.431Z,200.38
2018-07-14T20:01:01.057Z,199.17
2018-07-14T20:03:33.686Z,199.45
2018-07-14T20:06:05.131Z,199.35
2018-07-14T20:08:37.971Z,197.17
2018-07-14T20:11:12.019Z,202.28
2018-07-14T20:13:45.281Z,197.20
2018-07-14T20:16:17.819Z,197.00
2018-07-14T20:18:49.480Z,195.75
2018-07-14T20:21:21.749Z,197.35
2018-07-14T20:23:53.420Z,197.70
2018-07-14T20:26:25.751Z,196.37
2018-07-14T20:28:56.916Z,192.57
2018-07-14T20:31:28.047Z,192.65
2018-07-14T20:33:59.991Z,188.22
2018-07-14T20:36:32.563Z,194.10
2018-07-14T20:39:07.064Z,189.62
2018-07-14T20:41:38.733Z,197.53
2018-07-14T20:44:10.436Z,191.40
2018-07-14T20:46:42.242Z,204.60
2018-07-14T20:49:13.707Z,200.47
2018-07-14T20:51:44.990Z,199.00
2018-07-14T20:54:16.230Z,203.65
2018-07-14T20:56:47.638Z,199.07
2018-07-14T20:59:18.893Z,197.60
2018-07-14T21:01:51.855Z,200.53
2018-07-14T21:04:25.082Z,196.43
2018-07-14T21:06:56.840Z,194.55
2018-07-14T21:09:28.088Z,192.87
2018-07-14T21:11:59.266Z,194.00
2018-07-14T21:14:30.459Z,196.02
2018-07-14T21:17:02.259Z,189.70
2018-07-14T21:19:34.043Z,188.37
2018-07-14T21:22:05.686Z,197.68
2018-07-14T21:24:37.061Z,210.90
2018-07-14T21:27:08.395Z,193.17
2018-07-14T21:29:40.180Z,187.75
2018-07-14T21:32:11.617Z,190.38
2018-07-14T21:34:43.306Z,189.97
2018-07-14T21:37:14.717Z,190.40
2018-07-14T21:39:46.135Z,188.45
2018-07-14T21:42:17.429Z,192.18
2018-07-14T21:44:48.734Z,192.70
2018-07-14T21:47:20.053Z,187.35
2018-07-14T21:49:51.284Z,188.12
2018-07-14T21:52:23.210Z,185.32
2018-07-14T21:54:54.606Z,191.88
2018-07-14T21:57:25.659Z,190.32
2018-07-14T21:59:57.139Z,187.20
2018-07-14T22:02:28.428Z,185.60
2018-07-14T22:04:59.708Z,187.95
2018-07-14T22:07:30.824Z,189.97
2018-07-14T22:10:02.311Z,188.20
2018-07-14T22:12:33.575Z,187.88
2018-07-14T22:15:05.153Z,184.52
2018-07-14T22:17:37.224Z,188.47
2018-07-14T22:20:10.944Z,188.72
2018-07-14T22:22:42.747Z,188.72
2018-07-14T22:25:14.518Z,187.65
2018-07-14T22:27:45.996Z,192.98
2018-07-14T22:30:17.228Z,189.57
2018-07-14T22:32:48.433Z,192.00
2018-07-14T22:35:20.927Z,191.07
2018-07-14T22:37:52.246Z,190.40
2018-07-14T22:40:25.114Z,191.75
2018-07-14T22:42:56.595Z,192.57
2018-07-14T22:45:27.950Z,191.07
2018-07-14T22:47:59.486Z,203.77
2018-07-14T22:50:34.298Z,212.48
2018-07-14T22:53:05.883Z,203.45
2018-07-14T22:55:38.418Z,192.53
2018-07-14T22:58:11.068Z,190.90
2018-07-14T23:00:42.250Z,190.77
2018-07-14T23:03:13.622Z,186.65
2018-07-14T23:05:44.833Z,185.75
2018-07-14T23:08:16.333Z,188.75
2018-07-14T23:10:47.532Z,188.57
2018-07-14T23:13:18.566Z,190.77
2018-07-14T23:15:49.817Z,189.22
2018-07-14T23:18:21.010Z,189.50
2018-07-14T23:21:13.912Z,190.32
2018-07-14T23:23:53.620Z,189.07
2018-07-14T23:26:24.627Z,189.30
2018-07-14T23:28:55.763Z,186.75
2018-07-14T23:31:26.919Z,190.05
2018-07-14T23:33:58.156Z,192.10
2018-07-14T23:36:29.454Z,192.60
2018-07-14T23:39:01.598Z,193.52
2018-07-14T23:41:32.913Z,194.95
2018-07-14T23:44:04.062Z,192.20
2018-07-14T23:46:35.344Z,190.70
2018-07-14T23:49:06.766Z,193.17
2018-07-14T23:51:37.939Z,202.22
2018-07-14T23:54:09.059Z,192.60
2018-07-14T23:56:40.340Z,189.25
2018-07-14T23:59:12.214Z,189.82
